Time;durP1;ratioP1;P1;durP2;ratioP2;P2;SDS_P1;SDS_P2;PMS_P1;PMS_P2;Temp;Humidity;BMP_temperature;BMP_pressure;BME280_temperature;BME280_humidity;BME280_pressure;Samples;Min_cycle;Max_cycle;Signal;HPM_P1;HPM_P2
2022/09/02 00:00:53;;;;;;;2.35;0.73;;;;;;;;;;4989715;28;20041;-61
2022/09/02 00:03:19;;;;;;;1.27;0.80;;;;;;;;;;4989568;28;20436;-61
2022/09/02 00:05:45;;;;;;;1.20;0.80;;;;;;;;;;4989485;28;20510;-62
2022/09/02 00:08:11;;;;;;;2.80;1.10;;;;;;;;;;4989200;28;20125;-61
2022/09/02 00:10:40;;;;;;;6.07;1.02;;;;;;;;;;4990018;28;20025;-61
2022/09/02 00:13:07;;;;;;;2.85;1.00;;;;;;;;;;4989000;28;20510;-61
2022/09/02 00:15:33;;;;;;;1.55;0.70;;;;;;;;;;4989059;28;20562;-61
2022/09/02 00:17:59;;;;;;;1.45;0.80;;;;;;;;;;4990629;28;20428;-61
2022/09/02 00:20:25;;;;;;;1.23;0.70;;;;;;;;;;4989069;28;20028;-62
2022/09/02 00:22:51;;;;;;;2.72;0.60;;;;;;;;;;4980811;28;20408;-61
2022/09/02 00:25:16;;;;;;;4.00;1.23;;;;;;;;;;4988637;28;20314;-62
2022/09/02 00:27:41;;;;;;;1.20;0.77;;;;;;;;;;4988932;28;20512;-61
2022/09/02 00:30:07;;;;;;;2.78;1.10;;;;;;;;;;4989161;28;20347;-61
2022/09/02 00:32:33;;;;;;;5.18;0.80;;;;;;;;;;4988668;28;20449;-61
2022/09/02 00:34:58;;;;;;;2.42;0.75;;;;;;;;;;4988776;28;20518;-62
2022/09/02 00:37:25;;;;;;;1.83;0.88;;;;;;;;;;4988663;28;20083;-61
2022/09/02 00:39:53;;;;;;;5.78;1.10;;;;;;;;;;4988708;28;20444;-61
2022/09/02 00:42:19;;;;;;;1.90;1.00;;;;;;;;;;4988497;28;20454;-62
2022/09/02 00:44:45;;;;;;;2.00;1.00;;;;;;;;;;4988757;28;20068;-62
2022/09/02 00:47:11;;;;;;;2.72;1.20;;;;;;;;;;4988784;28;20178;-61
2022/09/02 00:49:38;;;;;;;2.47;1.10;;;;;;;;;;4988802;28;20154;-61
2022/09/02 00:52:12;;;;;;;2.05;1.10;;;;;;;;;;4988184;28;20469;-62
2022/09/02 00:54:46;;;;;;;2.03;1.20;;;;;;;;;;4970421;28;20479;-61
2022/09/02 00:57:18;;;;;;;1.70;1.05;;;;;;;;;;4988352;28;20430;-62
2022/09/02 00:59:55;;;;;;;7.50;1.00;;;;;;;;;;4988270;28;20445;-61
2022/09/02 01:02:24;;;;;;;2.80;1.00;;;;;;;;;;4986352;28;20052;-61
2022/09/02 01:04:50;;;;;;;1.97;0.67;;;;;;;;;;4988719;28;20419;-62
2022/09/02 01:07:15;;;;;;;1.75;0.88;;;;;;;;;;4988856;28;20744;-61
2022/09/02 01:09:41;;;;;;;3.35;1.10;;;;;;;;;;4988314;28;20379;-61
2022/09/02 01:12:07;;;;;;;4.60;1.80;;;;;;;;;;4988649;28;20488;-61
2022/09/02 01:14:34;;;;;;;1.23;0.85;;;;;;;;;;4988599;28;20463;-61
2022/09/02 01:17:00;;;;;;;2.13;1.20;;;;;;;;;;4988063;28;20128;-61
2022/09/02 01:19:36;;;;;;;2.20;1.35;;;;;;;;;;4988118;28;20448;-61
2022/09/02 01:22:01;;;;;;;1.85;1.10;;;;;;;;;;4970024;28;20448;-61
2022/09/02 01:24:29;;;;;;;3.33;1.30;;;;;;;;;;4970095;28;20459;-62
2022/09/02 01:26:56;;;;;;;4.25;1.30;;;;;;;;;;4989596;28;20455;-61
2022/09/02 01:29:23;;;;;;;11.23;1.50;;;;;;;;;;4988474;28;20436;-61
2022/09/02 01:31:48;;;;;;;3.35;1.33;;;;;;;;;;4988371;28;20423;-61
2022/09/02 01:34:14;;;;;;;2.53;1.40;;;;;;;;;;4988208;28;20419;-61
2022/09/02 01:36:41;;;;;;;3.53;1.08;;;;;;;;;;4987876;28;20383;-62
2022/09/02 01:39:08;;;;;;;2.53;1.20;;;;;;;;;;4987959;28;20448;-61
2022/09/02 01:41:34;;;;;;;3.10;1.42;;;;;;;;;;4988609;28;20047;-61
2022/09/02 01:44:00;;;;;;;2.90;1.23;;;;;;;;;;4988280;28;20029;-62
2022/09/02 01:46:25;;;;;;;3.13;1.40;;;;;;;;;;4987758;28;20376;-61
2022/09/02 01:48:51;;;;;;;2.55;1.30;;;;;;;;;;4990375;28;20029;-62
2022/09/02 01:51:18;;;;;;;2.83;1.27;;;;;;;;;;4992199;28;20111;-61
2022/09/02 01:53:44;;;;;;;2.45;1.00;;;;;;;;;;4992019;28;20444;-62
2022/09/02 01:56:09;;;;;;;2.63;1.13;;;;;;;;;;4992019;28;20544;-61
2022/09/02 01:58:35;;;;;;;1.88;0.85;;;;;;;;;;4978813;28;20088;-61
2022/09/02 02:01:01;;;;;;;1.98;0.95;;;;;;;;;;4991757;28;20391;-62
2022/09/02 02:03:26;;;;;;;1.45;0.90;;;;;;;;;;4993246;28;20071;-61
2022/09/02 02:05:52;;;;;;;2.17;1.08;;;;;;;;;;4991451;28;20394;-62
2022/09/02 02:08:17;;;;;;;1.50;1.17;;;;;;;;;;4991550;28;20562;-62
2022/09/02 02:10:42;;;;;;;3.38;1.30;;;;;;;;;;4991774;28;20107;-62
2022/09/02 02:13:08;;;;;;;2.40;1.10;;;;;;;;;;4991559;28;20355;-62
2022/09/02 02:15:37;;;;;;;2.50;1.15;;;;;;;;;;4992340;28;20506;-62
2022/09/02 02:18:03;;;;;;;1.40;0.73;;;;;;;;;;4991251;28;20064;-61
2022/09/02 02:20:28;;;;;;;1.35;0.90;;;;;;;;;;4991468;28;20527;-62
2022/09/02 02:22:53;;;;;;;4.80;1.08;;;;;;;;;;4992795;28;20324;-62
2022/09/02 02:25:19;;;;;;;2.25;1.10;;;;;;;;;;4991162;28;20347;-62
2022/09/02 02:27:45;;;;;;;1.85;0.88;;;;;;;;;;4991335;28;20099;-62
2022/09/02 02:30:12;;;;;;;2.10;1.10;;;;;;;;;;4990935;28;20463;-62
2022/09/02 02:32:38;;;;;;;1.33;1.00;;;;;;;;;;4991144;28;20440;-61
2022/09/02 02:35:05;;;;;;;1.25;0.85;;;;;;;;;;4990903;28;20349;-61
2022/09/02 02:37:30;;;;;;;3.92;1.05;;;;;;;;;;4991722;28;20114;-62
2022/09/02 02:39:56;;;;;;;2.17;1.05;;;;;;;;;;4992296;28;20036;-62
2022/09/02 02:42:21;;;;;;;1.98;1.20;;;;;;;;;;4990717;28;20391;-61
2022/09/02 02:44:47;;;;;;;1.73;0.93;;;;;;;;;;4990844;28;20344;-61
2022/09/02 02:47:12;;;;;;;2.58;1.10;;;;;;;;;;4992459;28;20465;-62
2022/09/02 02:49:39;;;;;;;1.80;1.05;;;;;;;;;;4990615;28;20351;-62
2022/09/02 02:52:05;;;;;;;3.42;1.00;;;;;;;;;;4990812;28;20048;-62
2022/09/02 02:54:30;;;;;;;2.30;0.77;;;;;;;;;;4990641;28;20037;-62
2022/09/02 02:56:56;;;;;;;2.80;0.98;;;;;;;;;;4990634;28;20407;-62
2022/09/02 02:59:21;;;;;;;1.15;1.05;;;;;;;;;;4992465;28;20498;-62
2022/09/02 03:01:47;;;;;;;1.88;1.05;;;;;;;;;;4990424;28;20448;-62
2022/09/02 03:04:12;;;;;;;2.45;1.02;;;;;;;;;;4990510;28;20127;-61
2022/09/02 03:06:37;;;;;;;2.10;1.30;;;;;;;;;;4990385;28;20350;-61
2022/09/02 03:09:04;;;;;;;2.58;1.10;;;;;;;;;;4990031;28;20432;-62
2022/09/02 03:11:29;;;;;;;2.63;1.20;;;;;;;;;;4990343;28;20052;-62
2022/09/02 03:13:55;;;;;;;5.32;1.10;;;;;;;;;;4990130;28;20466;-63
2022/09/02 03:16:20;;;;;;;2.20;1.25;;;;;;;;;;4990464;28;20518;-61
2022/09/02 03:18:47;;;;;;;3.85;1.27;;;;;;;;;;4991017;28;20443;-62
2022/09/02 03:21:14;;;;;;;3.50;0.85;;;;;;;;;;4990072;28;20424;-61
2022/09/02 03:23:40;;;;;;;3.25;1.10;;;;;;;;;;4989973;28;20386;-62
2022/09/02 03:26:10;;;;;;;2.45;1.10;;;;;;;;;;4989844;28;20333;-61
2022/09/02 03:28:36;;;;;;;2.90;1.10;;;;;;;;;;4990160;28;20452;-61
2022/09/02 03:31:01;;;;;;;1.90;1.05;;;;;;;;;;4990554;28;20495;-62
2022/09/02 03:33:26;;;;;;;8.18;1.63;;;;;;;;;;4989883;28;20364;-62
2022/09/02 03:35:52;;;;;;;4.22;1.38;;;;;;;;;;4989865;28;20356;-61
2022/09/02 03:38:17;;;;;;;2.78;1.30;;;;;;;;;;4990161;28;20427;-62
2022/09/02 03:40:43;;;;;;;1.80;0.73;;;;;;;;;;4989784;28;20451;-62
2022/09/02 03:43:09;;;;;;;1.92;0.93;;;;;;;;;;4989691;28;20029;-62
2022/09/02 03:45:34;;;;;;;3.75;1.45;;;;;;;;;;4990049;28;20424;-61
2022/09/02 03:47:59;;;;;;;4.13;1.27;;;;;;;;;;4989460;28;20434;-62
2022/09/02 03:50:28;;;;;;;2.38;1.13;;;;;;;;;;4989575;28;20395;-62
2022/09/02 03:52:54;;;;;;;;;;;;;;;;;;4990286;28;20459;-61
2022/09/02 03:55:19;;;;;;;2.33;1.23;;;;;;;;;;4989055;28;20418;-61
2022/09/02 03:57:45;;;;;;;3.95;1.38;;;;;;;;;;4990646;28;20355;-61
2022/09/02 04:00:12;;;;;;;2.65;1.30;;;;;;;;;;4989914;28;20458;-62
2022/09/02 04:02:38;;;;;;;1.33;1.00;;;;;;;;;;4990884;28;20025;-62
2022/09/02 04:05:03;;;;;;;1.92;0.93;;;;;;;;;;4989189;28;20455;-61
2022/09/02 04:07:29;;;;;;;6.28;1.38;;;;;;;;;;4989035;28;20025;-62
2022/09/02 04:09:55;;;;;;;3.78;1.30;;;;;;;;;;4989186;28;20349;-61
2022/09/02 04:12:21;;;;;;;4.65;1.60;;;;;;;;;;4988219;28;20375;-62
2022/09/02 04:14:46;;;;;;;4.43;1.50;;;;;;;;;;4989465;28;20415;-62
2022/09/02 04:17:11;;;;;;;3.08;1.42;;;;;;;;;;4972208;28;20467;-62
2022/09/02 04:19:38;;;;;;;2.47;1.58;;;;;;;;;;4989635;28;20324;-61
2022/09/02 04:22:03;;;;;;;1.85;1.00;;;;;;;;;;4989887;28;20385;-62
2022/09/02 04:24:29;;;;;;;2.85;1.20;;;;;;;;;;4988765;28;20321;-62
2022/09/02 04:26:55;;;;;;;5.43;1.90;;;;;;;;;;4989815;28;20122;-62
2022/09/02 04:29:20;;;;;;;1.90;1.20;;;;;;;;;;4990047;28;20087;-62
2022/09/02 04:31:45;;;;;;;4.38;1.20;;;;;;;;;;4989280;28;20416;-62
2022/09/02 04:34:11;;;;;;;2.70;1.67;;;;;;;;;;4988739;28;20427;-61
2022/09/02 04:36:36;;;;;;;2.53;1.70;;;;;;;;;;4988484;28;20304;-62
2022/09/02 04:39:02;;;;;;;2.22;1.27;;;;;;;;;;4988563;28;20028;-61
2022/09/02 04:41:29;;;;;;;5.15;1.30;;;;;;;;;;4988645;28;20443;-62
2022/09/02 04:43:56;;;;;;;4.63;1.92;;;;;;;;;;4988628;28;20455;-62
2022/09/02 04:46:22;;;;;;;2.78;1.05;;;;;;;;;;4988471;28;20467;-62
2022/09/02 04:48:48;;;;;;;7.03;1.45;;;;;;;;;;4988361;28;20444;-62
2022/09/02 04:51:22;;;;;;;4.55;1.40;;;;;;;;;;4988736;28;20360;-62
2022/09/02 04:53:49;;;;;;;1.63;1.30;;;;;;;;;;4988365;28;20412;-62
2022/09/02 04:56:18;;;;;;;9.27;1.40;;;;;;;;;;4988323;28;20487;-62
2022/09/02 04:58:43;;;;;;;3.13;1.73;;;;;;;;;;4988426;28;20321;-62
2022/09/02 05:01:15;;;;;;;2.35;1.10;;;;;;;;;;4988278;28;20393;-62
2022/09/02 05:03:44;;;;;;;1.75;1.20;;;;;;;;;;4988152;28;20553;-62
2022/09/02 05:06:12;;;;;;;5.93;1.08;;;;;;;;;;4988510;28;20443;-62
2022/09/02 05:08:37;;;;;;;5.10;0.80;;;;;;;;;;4970321;28;20486;-62
2022/09/02 05:11:07;;;;;;;1.33;0.80;;;;;;;;;;4988031;28;20506;-62
2022/09/02 05:13:33;;;;;;;4.57;1.20;;;;;;;;;;4988476;28;20447;-62
2022/09/02 05:15:59;;;;;;;2.08;1.60;;;;;;;;;;4988270;28;20494;-62
2022/09/02 05:18:24;;;;;;;1.48;1.05;;;;;;;;;;4988192;28;20329;-61
2022/09/02 05:20:50;;;;;;;3.38;1.10;;;;;;;;;;4988295;28;20506;-62
2022/09/02 05:23:15;;;;;;;1.40;1.10;;;;;;;;;;4988059;28;20029;-61
2022/09/02 05:25:41;;;;;;;2.03;1.05;;;;;;;;;;4988068;28;20051;-62
2022/09/02 05:28:09;;;;;;;3.60;1.50;;;;;;;;;;4987936;28;20383;-62
2022/09/02 05:30:39;;;;;;;1.88;1.05;;;;;;;;;;4989817;28;20503;-62
2022/09/02 05:33:05;;;;;;;3.17;1.33;;;;;;;;;;4988005;28;20401;-62
2022/09/02 05:35:31;;;;;;;6.28;1.50;;;;;;;;;;4988178;28;20447;-62
2022/09/02 05:37:56;;;;;;;2.35;1.13;;;;;;;;;;4988328;28;20436;-62
2022/09/02 05:40:22;;;;;;;3.85;0.95;;;;;;;;;;4988046;28;20422;-62
2022/09/02 05:42:47;;;;;;;2.00;0.85;;;;;;;;;;4989008;28;20421;-62
2022/09/02 05:45:13;;;;;;;3.55;1.00;;;;;;;;;;4987979;28;20444;-61
2022/09/02 05:47:38;;;;;;;2.53;0.95;;;;;;;;;;4988279;28;20409;-61
2022/09/02 05:50:04;;;;;;;1.95;0.90;;;;;;;;;;4987707;28;20084;-62
2022/09/02 05:52:30;;;;;;;2.55;0.98;;;;;;;;;;4989477;28;20145;-62
2022/09/02 05:54:55;;;;;;;4.20;1.17;;;;;;;;;;4987532;28;20546;-62
2022/09/02 05:57:21;;;;;;;1.70;1.00;;;;;;;;;;4988351;28;20048;-62
2022/09/02 05:59:48;;;;;;;4.60;0.60;;;;;;;;;;4987701;28;20444;-61
2022/09/02 06:02:16;;;;;;;2.00;1.02;;;;;;;;;;4987616;28;20733;-61
2022/09/02 06:04:47;;;;;;;3.15;1.13;;;;;;;;;;4989412;28;20328;-62
2022/09/02 06:07:13;;;;;;;2.17;1.08;;;;;;;;;;4987857;28;20500;-62
2022/09/02 06:09:39;;;;;;;1.55;0.80;;;;;;;;;;4987511;28;20325;-62
2022/09/02 06:12:05;;;;;;;2.13;1.10;;;;;;;;;;4987762;28;20382;-61
2022/09/02 06:14:32;;;;;;;1.67;1.13;;;;;;;;;;4987757;28;20424;-61
2022/09/02 06:16:57;;;;;;;3.13;0.90;;;;;;;;;;4969506;28;20348;-62
2022/09/02 06:19:25;;;;;;;2.35;1.10;;;;;;;;;;4987607;28;20379;-62
2022/09/02 06:21:52;;;;;;;4.82;0.90;;;;;;;;;;4987161;28;20051;-62
2022/09/02 06:24:17;;;;;;;2.20;1.10;;;;;;;;;;4987533;28;20509;-61
2022/09/02 06:26:43;;;;;;;3.40;1.10;;;;;;;;;;4987500;28;20452;-62
2022/09/02 06:29:09;;;;;;;2.20;1.13;;;;;;;;;;4987665;28;20447;-62
2022/09/02 06:31:34;;;;;;;4.78;1.23;;;;;;;;;;4988964;28;20444;-63
2022/09/02 06:34:01;;;;;;;1.65;1.02;;;;;;;;;;4987441;28;20462;-61
2022/09/02 06:36:28;;;;;;;2.08;1.00;;;;;;;;;;4990872;28;20165;-62
2022/09/02 06:38:56;;;;;;;4.97;1.20;;;;;;;;;;4991759;28;20502;-61
2022/09/02 06:41:27;;;;;;;2.67;0.98;;;;;;;;;;4973032;28;20398;-62
2022/09/02 06:43:55;;;;;;;5.57;1.30;;;;;;;;;;4990977;28;20043;-62
2022/09/02 06:46:23;;;;;;;2.15;0.80;;;;;;;;;;4992592;28;20436;-61
2022/09/02 06:48:49;;;;;;;1.52;1.10;;;;;;;;;;4991212;28;20456;-62
2022/09/02 06:51:21;;;;;;;2.53;1.02;;;;;;;;;;4990866;28;20452;-62
2022/09/02 06:53:47;;;;;;;2.15;0.80;;;;;;;;;;4992279;28;20457;-61
2022/09/02 06:56:15;;;;;;;1.40;1.00;;;;;;;;;;4990309;28;20481;-62
2022/09/02 06:58:40;;;;;;;1.73;1.03;;;;;;;;;;4991520;28;20322;-62
2022/09/02 07:01:06;;;;;;;2.03;0.75;;;;;;;;;;4990594;28;20395;-62
2022/09/02 07:06:16;;;;;;;1.38;0.88;;;;;;;;;;4991822;28;20406;-62
2022/09/02 07:08:43;;;;;;;1.70;0.80;;;;;;;;;;4990367;28;20029;-62
2022/09/02 07:11:20;;;;;;;0.98;0.60;;;;;;;;;;4990655;28;20400;-61
2022/09/02 07:13:45;;;;;;;3.33;1.10;;;;;;;;;;4990484;28;20021;-62
2022/09/02 07:16:11;;;;;;;1.98;1.00;;;;;;;;;;4990638;28;20424;-62
2022/09/02 07:18:36;;;;;;;2.55;1.10;;;;;;;;;;4991025;28;20355;-62
2022/09/02 07:21:02;;;;;;;8.13;0.95;;;;;;;;;;4990604;28;20092;-62
2022/09/02 07:23:27;;;;;;;2.97;0.90;;;;;;;;;;4991166;28;20428;-62
2022/09/02 07:25:54;;;;;;;1.30;0.70;;;;;;;;;;4990621;28;20392;-62
2022/09/02 07:28:20;;;;;;;0.98;0.60;;;;;;;;;;4989818;28;20171;-61
2022/09/02 07:30:46;;;;;;;1.02;0.60;;;;;;;;;;4992008;28;20375;-61
2022/09/02 07:33:12;;;;;;;1.73;0.70;;;;;;;;;;4991219;28;20025;-62
2022/09/02 07:35:40;;;;;;;1.70;0.70;;;;;;;;;;4990198;28;20471;-62
2022/09/02 07:38:06;;;;;;;2.13;0.63;;;;;;;;;;4992649;28;20509;-62
2022/09/02 07:40:35;;;;;;;2.35;0.77;;;;;;;;;;4990895;28;20440;-61
2022/09/02 07:43:04;;;;;;;0.40;0.40;;;;;;;;;;4990198;28;20495;-61
2022/09/02 07:45:30;;;;;;;1.13;0.63;;;;;;;;;;4991142;28;20360;-62
2022/09/02 07:47:55;;;;;;;1.92;0.70;;;;;;;;;;4989276;28;20432;-62
2022/09/02 07:50:21;;;;;;;5.88;0.90;;;;;;;;;;4990186;28;20455;-62
2022/09/02 07:52:47;;;;;;;1.98;0.85;;;;;;;;;;4990463;28;20336;-62
2022/09/02 07:55:13;;;;;;;1.23;0.85;;;;;;;;;;4989891;28;20313;-63
2022/09/02 07:57:38;;;;;;;1.58;0.70;;;;;;;;;;4989689;28;20033;-62
2022/09/02 08:00:05;;;;;;;0.82;0.55;;;;;;;;;;4989847;28;20382;-61
2022/09/02 08:02:30;;;;;;;1.58;0.60;;;;;;;;;;4991703;28;20350;-61
2022/09/02 08:04:55;;;;;;;1.45;0.68;;;;;;;;;;4989624;28;20344;-62
2022/09/02 08:07:23;;;;;;;0.68;0.40;;;;;;;;;;4989308;28;20436;-62
2022/09/02 08:09:50;;;;;;;1.65;0.60;;;;;;;;;;4990952;28;20451;-62
2022/09/02 08:12:15;;;;;;;2.15;0.88;;;;;;;;;;4989151;28;20430;-61
2022/09/02 08:14:41;;;;;;;1.35;0.55;;;;;;;;;;4989333;28;20103;-61
2022/09/02 08:17:07;;;;;;;0.50;0.50;;;;;;;;;;4989486;28;20412;-61
2022/09/02 08:19:32;;;;;;;1.58;0.60;;;;;;;;;;4989560;28;20325;-61
2022/09/02 08:22:07;;;;;;;1.13;0.50;;;;;;;;;;4989878;28;20412;-61
2022/09/02 08:24:32;;;;;;;2.83;0.70;;;;;;;;;;4989137;28;20547;-61
2022/09/02 08:26:59;;;;;;;1.20;0.63;;;;;;;;;;4988941;28;20513;-61
2022/09/02 08:29:24;;;;;;;3.08;0.80;;;;;;;;;;4989989;28;20432;-61
2022/09/02 08:31:50;;;;;;;0.70;0.35;;;;;;;;;;4988888;28;20443;-61
2022/09/02 08:34:15;;;;;;;2.88;1.20;;;;;;;;;;4989403;28;20348;-61
2022/09/02 08:36:42;;;;;;;11.50;2.80;;;;;;;;;;4989326;28;20335;-61
2022/09/02 08:39:08;;;;;;;7.65;2.42;;;;;;;;;;4988671;28;20095;-61
2022/09/02 08:41:53;;;;;;;3.25;1.45;;;;;;;;;;4989077;28;20386;-61
2022/09/02 08:44:22;;;;;;;1.88;0.70;;;;;;;;;;4989150;28;20416;-62
2022/09/02 08:46:49;;;;;;;2.38;0.70;;;;;;;;;;4990446;28;20065;-61
2022/09/02 08:49:25;;;;;;;1.95;0.90;;;;;;;;;;4971875;28;20079;-61
2022/09/02 08:52:02;;;;;;;1.55;0.73;;;;;;;;;;4971220;28;20032;-61
2022/09/02 08:54:36;;;;;;;2.03;0.80;;;;;;;;;;4988579;28;20383;-61
2022/09/02 08:57:01;;;;;;;4.13;0.93;;;;;;;;;;4987926;28;20159;-62
2022/09/02 08:59:29;;;;;;;1.77;0.77;;;;;;;;;;4970493;28;20432;-61
2022/09/02 09:02:19;;;;;;;1.85;0.77;;;;;;;;;;4970663;28;20349;-62
2022/09/02 09:05:06;;;;;;;4.50;0.80;;;;;;;;;;4987161;28;20410;-61
2022/09/02 09:07:39;;;;;;;1.27;0.60;;;;;;;;;;4986842;28;20431;-61
2022/09/02 09:10:13;;;;;;;1.42;0.60;;;;;;;;;;4970540;28;20151;-61
2022/09/02 09:12:39;;;;;;;1.48;0.50;;;;;;;;;;4988058;28;20033;-61
2022/09/02 09:15:08;;;;;;;3.83;0.70;;;;;;;;;;4988472;28;20497;-61
2022/09/02 09:17:43;;;;;;;1.08;0.70;;;;;;;;;;4987072;28;20539;-61
2022/09/02 09:20:19;;;;;;;1.20;0.65;;;;;;;;;;4988879;28;20459;-62
2022/09/02 09:22:47;;;;;;;1.27;0.60;;;;;;;;;;4971417;28;20110;-61
2022/09/02 09:25:15;;;;;;;3.67;0.55;;;;;;;;;;4970703;28;20459;-61
2022/09/02 09:27:40;;;;;;;6.90;0.80;;;;;;;;;;4988520;28;20343;-61
2022/09/02 09:30:08;;;;;;;1.95;0.75;;;;;;;;;;4989482;28;20360;-62
2022/09/02 09:32:38;;;;;;;1.40;0.70;;;;;;;;;;4987971;28;20343;-61
2022/09/02 09:35:15;;;;;;;1.17;0.55;;;;;;;;;;4987603;28;20029;-61
2022/09/02 09:37:44;;;;;;;0.73;0.50;;;;;;;;;;4969775;28;20021;-61
2022/09/02 09:40:24;;;;;;;1.60;0.50;;;;;;;;;;4970281;28;20436;-61
2022/09/02 09:43:04;;;;;;;1.38;0.70;;;;;;;;;;4988156;28;20425;-62
2022/09/02 09:45:48;;;;;;;0.73;0.47;;;;;;;;;;4988056;28;20410;-62
2022/09/02 09:48:28;;;;;;;2.35;0.90;;;;;;;;;;4970834;28;20336;-62
2022/09/02 09:50:53;;;;;;;0.73;0.43;;;;;;;;;;4988063;28;20566;-61
2022/09/02 09:53:24;;;;;;;3.50;0.57;;;;;;;;;;4988195;28;20367;-61
2022/09/02 09:56:05;;;;;;;2.15;0.68;;;;;;;;;;4988098;28;20387;-61
2022/09/02 09:58:39;;;;;;;1.85;0.65;;;;;;;;;;4970515;28;20331;-62
2022/09/02 10:01:20;;;;;;;3.90;0.60;;;;;;;;;;4987985;28;20418;-61
2022/09/02 10:03:59;;;;;;;2.65;0.35;;;;;;;;;;4987771;28;20348;-62
2022/09/02 10:06:31;;;;;;;0.98;0.40;;;;;;;;;;4987761;28;20068;-61
2022/09/02 10:09:12;;;;;;;1.25;0.50;;;;;;;;;;4988205;28;20392;-61
2022/09/02 10:11:38;;;;;;;1.65;0.50;;;;;;;;;;4991504;28;20098;-61
2022/09/02 10:14:03;;;;;;;1.38;0.32;;;;;;;;;;4992774;28;20440;-61
2022/09/02 10:16:55;;;;;;;0.40;0.30;;;;;;;;;;4991269;28;20037;-61
2022/09/02 10:19:43;;;;;;;1.00;0.47;;;;;;;;;;4969838;28;20682;-61
2022/09/02 10:22:11;;;;;;;0.45;0.40;;;;;;;;;;4990580;28;20344;-61
2022/09/02 10:24:55;;;;;;;0.73;0.38;;;;;;;;;;4991682;28;20451;-61
2022/09/02 10:27:31;;;;;;;1.00;0.43;;;;;;;;;;4992168;28;20032;-61
2022/09/02 10:30:08;;;;;;;1.20;0.68;;;;;;;;;;4973172;28;20064;-61
2022/09/02 10:33:14;;;;;;;0.88;0.40;;;;;;;;;;4973736;28;20432;-62
2022/09/02 10:35:45;;;;;;;0.73;0.50;;;;;;;;;;4989486;28;20478;-62
2022/09/02 10:38:34;;;;;;;0.95;0.43;;;;;;;;;;4992047;28;20407;-61
2022/09/02 10:40:59;;;;;;;1.30;0.60;;;;;;;;;;4972958;28;20029;-61
2022/09/02 10:43:36;;;;;;;1.13;0.55;;;;;;;;;;4991271;28;20502;-62
2022/09/02 10:46:06;;;;;;;3.03;0.50;;;;;;;;;;4990987;28;20439;-61
2022/09/02 10:48:47;;;;;;;1.33;0.47;;;;;;;;;;4972862;28;20458;-61
2022/09/02 10:51:36;;;;;;;0.75;0.40;;;;;;;;;;4992104;28;20060;-61
2022/09/02 10:54:39;;;;;;;0.95;0.30;;;;;;;;;;4989164;28;20355;-62
2022/09/02 10:57:15;;;;;;;5.75;0.47;;;;;;;;;;4990480;28;20048;-62
2022/09/02 10:59:48;;;;;;;1.08;0.57;;;;;;;;;;4990380;28;20376;-62
2022/09/02 11:02:20;;;;;;;0.98;0.50;;;;;;;;;;4991070;28;20028;-62
2022/09/02 11:04:55;;;;;;;1.05;0.52;;;;;;;;;;4990535;28;20479;-62
2022/09/02 11:07:26;;;;;;;1.05;0.40;;;;;;;;;;4973288;28;20025;-63
2022/09/02 11:09:55;;;;;;;1.27;0.45;;;;;;;;;;4972286;28;20391;-62
2022/09/02 11:12:30;;;;;;;;;;;;;;;;;;4973767;28;20174;-62
2022/09/02 11:15:17;;;;;;;0.93;0.35;;;;;;;;;;4990407;28;19931;-64
2022/09/02 11:17:59;;;;;;;0.30;0.30;;;;;;;;;;4972383;28;20125;-62
2022/09/02 11:20:35;;;;;;;4.18;0.47;;;;;;;;;;4989802;28;20340;-62
2022/09/02 11:23:07;;;;;;;0.65;0.40;;;;;;;;;;4988573;28;20518;-62
2022/09/02 11:25:46;;;;;;;0.43;0.25;;;;;;;;;;4990513;28;20442;-62
2022/09/02 11:28:27;;;;;;;0.47;0.30;;;;;;;;;;4989924;28;20458;-62
2022/09/02 11:31:16;;;;;;;2.35;0.40;;;;;;;;;;4990980;28;20531;-62
2022/09/02 11:33:53;;;;;;;0.75;0.30;;;;;;;;;;4969427;28;20451;-62
2022/09/02 11:36:19;;;;;;;0.38;0.20;;;;;;;;;;4989870;28;20462;-62
2022/09/02 11:38:51;;;;;;;0.63;0.30;;;;;;;;;;4988604;28;20435;-62
2022/09/02 11:41:19;;;;;;;0.60;0.30;;;;;;;;;;4971828;28;20444;-63
2022/09/02 11:43:48;;;;;;;0.40;0.30;;;;;;;;;;4990082;28;20424;-62
2022/09/02 11:46:45;;;;;;;;;;;;;;;;;;4972537;28;20021;-63
2022/09/02 11:49:54;;;;;;;3.03;0.43;;;;;;;;;;4919884;28;20225;-62
2022/09/02 11:52:45;;;;;;;0.50;0.30;;;;;;;;;;4940627;28;20119;-61
2022/09/02 11:55:23;;;;;;;1.20;0.30;;;;;;;;;;4989311;28;20419;-62
2022/09/02 11:57:56;;;;;;;0.85;0.30;;;;;;;;;;4971832;28;20079;-62
2022/09/02 12:00:59;;;;;;;0.60;0.30;;;;;;;;;;4990336;28;20403;-61
2022/09/02 12:03:30;;;;;;;1.00;0.50;;;;;;;;;;4989445;28;20451;-61
2022/09/02 12:06:13;;;;;;;0.47;0.38;;;;;;;;;;4989429;28;20344;-62
2022/09/02 12:08:39;;;;;;;1.75;0.45;;;;;;;;;;4971487;28;20404;-61
2022/09/02 12:11:05;;;;;;;0.38;0.38;;;;;;;;;;4990329;28;20056;-61
2022/09/02 12:13:37;;;;;;;0.40;0.20;;;;;;;;;;4971510;28;20037;-62
2022/09/02 12:16:11;;;;;;;0.45;0.30;;;;;;;;;;4989075;28;20386;-62
2022/09/02 12:18:37;;;;;;;0.57;0.40;;;;;;;;;;4989177;28;20439;-62
2022/09/02 12:21:09;;;;;;;0.75;0.20;;;;;;;;;;4989051;28;20436;-61
2022/09/02 12:23:49;;;;;;;0.63;0.25;;;;;;;;;;4988870;28;20419;-62
2022/09/02 12:26:16;;;;;;;3.78;0.52;;;;;;;;;;4988927;28;20047;-61
2022/09/02 12:28:45;;;;;;;1.40;0.50;;;;;;;;;;4988750;28;20032;-62
2022/09/02 12:31:16;;;;;;;0.82;0.30;;;;;;;;;;4971072;28;20314;-62
2022/09/02 12:33:50;;;;;;;0.63;0.50;;;;;;;;;;4989563;28;20076;-61
2022/09/02 12:36:38;;;;;;;1.52;0.60;;;;;;;;;;4971603;28;20401;-62
2022/09/02 12:39:34;;;;;;;0.70;0.50;;;;;;;;;;4989850;28;20037;-62
2022/09/02 12:42:01;;;;;;;0.47;0.35;;;;;;;;;;4980841;28;20343;-62
2022/09/02 12:44:42;;;;;;;2.92;0.43;;;;;;;;;;4987838;28;20475;-62
2022/09/02 12:47:46;;;;;;;0.50;0.30;;;;;;;;;;4988773;28;20458;-62
2022/09/02 12:50:31;;;;;;;0.52;0.30;;;;;;;;;;4973588;28;20398;-61
2022/09/02 12:53:12;;;;;;;1.25;0.28;;;;;;;;;;4988932;28;20371;-62
2022/09/02 12:55:38;;;;;;;0.70;0.40;;;;;;;;;;4970093;28;20356;-62
2022/09/02 12:58:15;;;;;;;0.43;0.30;;;;;;;;;;4970738;28;20379;-62
2022/09/02 13:00:59;;;;;;;1.58;0.30;;;;;;;;;;4989911;28;20045;-62
2022/09/02 13:03:49;;;;;;;0.65;0.30;;;;;;;;;;4987036;28;20463;-62
2022/09/02 13:06:22;;;;;;;0.28;0.20;;;;;;;;;;4988032;28;20055;-62
2022/09/02 13:09:21;;;;;;;0.77;0.40;;;;;;;;;;4988243;28;20056;-62
2022/09/02 13:12:16;;;;;;;0.60;0.38;;;;;;;;;;4947432;28;20418;-62
2022/09/02 13:15:06;;;;;;;0.63;0.30;;;;;;;;;;4970076;28;20453;-62
2022/09/02 13:17:47;;;;;;;1.27;0.60;;;;;;;;;;4987991;28;20371;-62
2022/09/02 13:20:31;;;;;;;1.48;0.43;;;;;;;;;;4987837;28;20435;-62
2022/09/02 13:22:59;;;;;;;3.40;0.40;;;;;;;;;;4987783;28;20059;-62
2022/09/02 13:25:46;;;;;;;0.65;0.35;;;;;;;;;;4988481;28;20494;-63
2022/09/02 13:28:17;;;;;;;0.55;0.38;;;;;;;;;;4987864;28;20068;-62
2022/09/02 13:31:11;;;;;;;0.57;0.30;;;;;;;;;;4988452;28;20356;-62
2022/09/02 13:33:36;;;;;;;0.40;0.20;;;;;;;;;;4987853;28;20495;-62
2022/09/02 13:36:02;;;;;;;0.80;0.35;;;;;;;;;;4988081;28;20335;-61
2022/09/02 13:38:29;;;;;;;0.50;0.40;;;;;;;;;;4988884;28;20478;-62
2022/09/02 13:40:54;;;;;;;1.00;0.60;;;;;;;;;;4988186;28;20378;-61
2022/09/02 13:43:22;;;;;;;0.30;0.30;;;;;;;;;;4987636;28;20375;-61
2022/09/02 13:45:49;;;;;;;1.63;0.40;;;;;;;;;;4987578;28;20455;-62
2022/09/02 13:48:26;;;;;;;0.52;0.38;;;;;;;;;;4969880;28;20086;-61
2022/09/02 13:50:53;;;;;;;1.05;0.47;;;;;;;;;;4987785;28;20025;-61
2022/09/02 13:53:38;;;;;;;1.02;0.35;;;;;;;;;;4988345;28;20436;-61
2022/09/02 13:56:06;;;;;;;1.08;0.50;;;;;;;;;;4987338;28;20460;-61
2022/09/02 13:58:37;;;;;;;1.13;0.55;;;;;;;;;;4970163;28;20505;-61
2022/09/02 14:01:28;;;;;;;1.38;0.47;;;;;;;;;;4989620;28;20324;-61
2022/09/02 14:03:55;;;;;;;1.17;0.30;;;;;;;;;;4988670;28;20087;-61
2022/09/02 14:06:29;;;;;;;1.13;0.43;;;;;;;;;;4988668;28;20380;-61
2022/09/02 14:08:58;;;;;;;0.65;0.52;;;;;;;;;;4969693;28;20475;-61
2022/09/02 14:11:23;;;;;;;;;;;;;;;;;;4969957;28;20448;-61
2022/09/02 14:13:49;;;;;;;1.42;0.65;;;;;;;;;;4987435;28;20366;-61
2022/09/02 14:16:34;;;;;;;1.45;0.40;;;;;;;;;;4969352;28;20452;-61
2022/09/02 14:19:15;;;;;;;0.55;0.40;;;;;;;;;;4987466;28;20391;-61
2022/09/02 14:21:48;;;;;;;3.70;0.60;;;;;;;;;;4987359;28;20490;-62
2022/09/02 14:24:15;;;;;;;0.68;0.50;;;;;;;;;;4987387;28;20021;-62
2022/09/02 14:26:46;;;;;;;1.10;0.60;;;;;;;;;;4969285;28;20359;-61
2022/09/02 14:29:14;;;;;;;1.30;0.52;;;;;;;;;;4969452;28;20032;-61
2022/09/02 14:31:40;;;;;;;0.50;0.40;;;;;;;;;;4969603;28;20083;-61
2022/09/02 14:34:34;;;;;;;0.47;0.32;;;;;;;;;;4969679;28;20037;-61
2022/09/02 14:37:00;;;;;;;0.63;0.40;;;;;;;;;;4987095;28;20450;-61
2022/09/02 14:39:25;;;;;;;1.17;0.85;;;;;;;;;;4987329;28;20368;-62
2022/09/02 14:41:54;;;;;;;1.38;0.50;;;;;;;;;;4987117;28;20084;-61
2022/09/02 14:44:32;;;;;;;0.38;0.28;;;;;;;;;;4969741;28;20378;-61
2022/09/02 14:47:00;;;;;;;2.10;0.60;;;;;;;;;;4985623;28;20623;-61
2022/09/02 14:49:31;;;;;;;0.95;0.45;;;;;;;;;;4986928;28;20452;-61
2022/09/02 14:51:58;;;;;;;0.80;0.43;;;;;;;;;;4987342;28;20088;-61
2022/09/02 14:54:46;;;;;;;0.93;0.50;;;;;;;;;;4987330;28;20432;-61
2022/09/02 14:57:27;;;;;;;0.93;0.63;;;;;;;;;;4989985;28;20543;-61
2022/09/02 14:59:54;;;;;;;1.35;0.47;;;;;;;;;;4990689;28;20371;-61
2022/09/02 15:02:26;;;;;;;0.55;0.40;;;;;;;;;;4990561;28;20374;-61
2022/09/02 15:05:00;;;;;;;0.40;0.40;;;;;;;;;;4992859;28;20378;-61